createdAt,value
2018-02-02T00:01:40.654Z,0.80
2018-02-02T00:04:08.141Z,0.80
2018-02-02T00:06:35.635Z,0.80
2018-02-02T00:09:03.099Z,0.80
2018-02-02T00:11:31.266Z,0.90
2018-02-02T00:13:58.765Z,0.90
2018-02-02T00:16:26.223Z,0.90
2018-02-02T00:18:54.509Z,1.10
2018-02-02T00:21:22.001Z,1.00
2018-02-02T00:23:50.481Z,1.00
2018-02-02T00:26:18.000Z,0.90
2018-02-02T00:28:45.458Z,0.90
2018-02-02T00:31:12.988Z,0.80
2018-02-02T00:33:40.514Z,0.80
2018-02-02T00:36:08.754Z,0.80
2018-02-02T00:38:36.241Z,0.80
2018-02-02T00:41:04.468Z,0.70
2018-02-02T00:43:31.959Z,0.70
2018-02-02T00:45:59.439Z,0.70
2018-02-02T00:48:26.914Z,0.70
2018-02-02T00:51:00.171Z,0.70
2018-02-02T00:53:28.456Z,0.70
2018-02-02T00:55:56.710Z,0.70
2018-02-02T00:58:24.203Z,0.70
2018-02-02T01:00:51.670Z,0.70
2018-02-02T01:03:19.161Z,0.70
2018-02-02T01:05:47.411Z,0.70
2018-02-02T01:08:14.911Z,0.70
2018-02-02T01:10:42.382Z,0.80
2018-02-02T01:13:10.628Z,0.70
2018-02-02T01:15:38.120Z,0.70
2018-02-02T01:18:06.366Z,0.70
2018-02-02T01:20:33.884Z,0.70
2018-02-02T01:23:01.350Z,0.90
2018-02-02T01:25:28.839Z,0.80
2018-02-02T01:27:56.335Z,0.70
2018-02-02T01:30:24.604Z,2.20
2018-02-02T01:32:52.128Z,0.70
2018-02-02T01:35:19.643Z,0.70
2018-02-02T01:37:47.882Z,0.60
2018-02-02T01:40:15.394Z,0.60
2018-02-02T01:42:42.858Z,0.50
2018-02-02T01:45:10.347Z,0.60
2018-02-02T01:47:37.816Z,0.70
2018-02-02T01:50:05.282Z,0.70
2018-02-02T01:52:32.779Z,0.70
2018-02-02T01:55:00.263Z,0.70
2018-02-02T01:57:27.734Z,0.70
2018-02-02T01:59:55.210Z,0.60
2018-02-02T02:02:23.456Z,0.70
2018-02-02T02:04:50.968Z,0.70
2018-02-02T02:07:18.425Z,0.80
2018-02-02T02:09:45.906Z,0.80
2018-02-02T02:12:13.382Z,0.70
2018-02-02T02:14:41.338Z,0.70
2018-02-02T02:17:09.089Z,0.70
2018-02-02T02:19:37.169Z,0.70
2018-02-02T02:22:04.637Z,0.70
2018-02-02T02:24:32.323Z,0.60
2018-02-02T02:26:59.800Z,0.60
2018-02-02T02:29:27.290Z,0.70
2018-02-02T02:31:54.770Z,0.70
2018-02-02T02:34:22.223Z,0.70
2018-02-02T02:36:49.713Z,0.70
2018-02-02T02:39:17.179Z,0.70
2018-02-02T02:41:45.455Z,0.70
2018-02-02T02:44:13.702Z,0.60
2018-02-02T02:46:41.194Z,0.60
2018-02-02T02:49:09.449Z,0.60
2018-02-02T02:51:36.931Z,0.60
2018-02-02T02:54:04.404Z,0.70
2018-02-02T02:56:31.904Z,0.60
2018-02-02T02:58:59.391Z,0.60
2018-02-02T03:01:28.054Z,0.60
2018-02-02T03:03:55.668Z,0.60
2018-02-02T03:06:23.249Z,0.60
2018-02-02T03:08:51.497Z,0.60
2018-02-02T03:11:19.038Z,0.60
2018-02-02T03:13:47.304Z,0.80
2018-02-02T03:16:14.801Z,0.70
2018-02-02T03:18:42.308Z,0.80
2018-02-02T03:21:09.779Z,0.80
2018-02-02T03:23:38.053Z,0.70
2018-02-02T03:26:06.348Z,0.60
2018-02-02T03:28:33.841Z,0.60
2018-02-02T03:31:02.178Z,0.70
2018-02-02T03:33:29.678Z,0.70
2018-02-02T03:35:57.153Z,0.70
2018-02-02T03:38:24.662Z,0.70
2018-02-02T03:40:52.120Z,0.60
2018-02-02T03:43:19.638Z,0.70
2018-02-02T03:45:47.151Z,0.70
2018-02-02T03:48:14.636Z,0.70
2018-02-02T03:50:42.126Z,0.70
2018-02-02T03:53:10.381Z,0.80
2018-02-02T03:55:38.286Z,0.70
2018-02-02T03:58:06.553Z,0.80
2018-02-02T04:00:34.785Z,0.80
2018-02-02T04:03:02.283Z,0.80
2018-02-02T04:05:30.522Z,0.70
2018-02-02T04:07:58.004Z,0.70
2018-02-02T04:10:26.323Z,0.70
2018-02-02T04:12:53.820Z,0.70
2018-02-02T04:15:21.319Z,0.80
2018-02-02T04:17:49.578Z,0.60
2018-02-02T04:20:17.816Z,0.70
2018-02-02T04:22:45.281Z,0.70
2018-02-02T04:25:13.478Z,0.70
2018-02-02T04:27:40.933Z,0.70
2018-02-02T04:30:08.418Z,0.70
2018-02-02T04:32:35.912Z,0.70
2018-02-02T04:35:07.927Z,0.80
2018-02-02T04:37:36.179Z,0.80
2018-02-02T04:40:03.713Z,0.80
2018-02-02T04:42:31.174Z,0.80
2018-02-02T04:44:58.659Z,0.70
2018-02-02T04:47:26.195Z,0.80
2018-02-02T04:49:54.715Z,0.70
2018-02-02T04:52:23.012Z,0.80
2018-02-02T04:54:50.542Z,0.80
2018-02-02T04:57:18.835Z,1.00
2018-02-02T04:59:46.359Z,0.90
2018-02-02T05:02:13.843Z,0.90
2018-02-02T05:04:42.094Z,1.00
2018-02-02T05:07:09.612Z,0.90
2018-02-02T05:09:37.129Z,0.90
2018-02-02T05:12:04.638Z,1.00
2018-02-02T05:14:32.151Z,0.90
2018-02-02T05:17:00.774Z,0.90
2018-02-02T05:19:28.251Z,0.90
2018-02-02T05:21:55.751Z,0.90
2018-02-02T05:24:24.234Z,0.90
2018-02-02T05:26:52.478Z,0.90
2018-02-02T05:29:19.928Z,0.90
2018-02-02T05:31:47.416Z,1.00
2018-02-02T05:34:15.671Z,0.90
2018-02-02T05:36:43.188Z,0.90
2018-02-02T05:39:10.650Z,0.90
2018-02-02T05:41:38.127Z,0.90
2018-02-02T05:44:05.609Z,0.90
2018-02-02T05:46:33.689Z,0.90
2018-02-02T05:49:01.167Z,0.90
2018-02-02T05:51:28.664Z,0.90
2018-02-02T05:53:56.151Z,0.80
2018-02-02T05:56:23.635Z,0.90
2018-02-02T05:58:51.876Z,0.90
2018-02-02T06:01:19.348Z,0.80
2018-02-02T06:03:47.598Z,0.90
2018-02-02T06:06:15.074Z,0.90
2018-02-02T06:08:42.535Z,1.00
2018-02-02T06:11:10.295Z,1.00
2018-02-02T06:13:37.762Z,1.00
2018-02-02T06:16:05.994Z,0.90
2018-02-02T06:18:33.765Z,0.80
2018-02-02T06:21:01.263Z,0.90
2018-02-02T06:23:28.719Z,0.90
2018-02-02T06:25:56.970Z,0.80
2018-02-02T06:28:24.471Z,0.80
2018-02-02T06:30:51.937Z,0.80
2018-02-02T06:33:19.432Z,0.70
2018-02-02T06:35:46.908Z,0.70
2018-02-02T06:38:14.402Z,0.80
2018-02-02T06:40:41.912Z,0.70
2018-02-02T06:43:09.392Z,0.80
2018-02-02T06:45:36.880Z,0.70
2018-02-02T06:48:04.365Z,0.80
2018-02-02T06:50:31.827Z,0.80
2018-02-02T06:52:59.303Z,0.80
2018-02-02T06:55:26.775Z,0.70
2018-02-02T06:57:54.306Z,0.70
2018-02-02T07:00:21.797Z,0.70
2018-02-02T07:02:49.282Z,0.60
2018-02-02T07:05:16.736Z,0.70
2018-02-02T07:07:44.197Z,0.70
2018-02-02T07:10:12.047Z,0.80
2018-02-02T07:12:39.514Z,0.70
2018-02-02T07:15:06.990Z,0.70
2018-02-02T07:17:34.499Z,0.70
2018-02-02T07:20:01.997Z,0.70
2018-02-02T07:22:29.500Z,0.70
2018-02-02T07:24:56.992Z,0.70
2018-02-02T07:27:24.483Z,0.80
2018-02-02T07:29:51.946Z,0.80
2018-02-02T07:32:19.739Z,0.80
2018-02-02T07:34:47.231Z,0.70
2018-02-02T07:37:14.686Z,0.90
2018-02-02T07:39:42.417Z,0.80
2018-02-02T07:42:09.882Z,0.80
2018-02-02T07:44:37.357Z,0.90
2018-02-02T07:47:05.625Z,0.90
2018-02-02T07:49:33.103Z,0.90
2018-02-02T07:52:00.556Z,0.90
2018-02-02T07:54:28.042Z,0.90
2018-02-02T07:56:55.514Z,1.00
2018-02-02T07:59:22.994Z,1.00
2018-02-02T08:01:50.459Z,1.00
2018-02-02T08:04:17.926Z,1.00
2018-02-02T08:06:46.186Z,1.00
2018-02-02T08:09:14.431Z,1.10
2018-02-02T08:11:41.899Z,1.00
2018-02-02T08:14:09.395Z,1.20
2018-02-02T08:16:37.199Z,1.30
2018-02-02T08:19:04.667Z,1.40
2018-02-02T08:21:32.125Z,1.40
2018-02-02T08:23:59.830Z,1.40
2018-02-02T08:26:27.296Z,1.50
2018-02-02T08:28:54.814Z,1.60
2018-02-02T08:31:22.295Z,1.70
2018-02-02T08:33:49.778Z,1.70
2018-02-02T08:36:18.019Z,1.70
2018-02-02T08:38:45.490Z,1.70
2018-02-02T08:41:14.751Z,1.60
2018-02-02T08:43:42.253Z,1.60
2018-02-02T08:46:09.741Z,1.60
2018-02-02T08:48:37.228Z,1.60
2018-02-02T08:51:04.688Z,1.50
2018-02-02T08:53:32.178Z,1.40
2018-02-02T08:55:59.735Z,1.60
2018-02-02T08:58:29.256Z,1.50
2018-02-02T09:01:04.068Z,1.50
2018-02-02T09:03:31.527Z,1.50
2018-02-02T09:05:58.983Z,1.50
2018-02-02T09:08:26.450Z,1.60
2018-02-02T09:10:53.923Z,1.70
2018-02-02T09:13:21.415Z,1.60
2018-02-02T09:15:51.831Z,1.80
2018-02-02T09:18:19.278Z,1.70
2018-02-02T09:20:46.770Z,1.80
2018-02-02T09:23:14.592Z,1.80
2018-02-02T09:25:42.047Z,1.80
2018-02-02T09:28:09.526Z,1.90
2018-02-02T09:33:11.574Z,2.00
2018-02-02T09:35:39.057Z,2.00
2018-02-02T09:38:06.520Z,2.10
2018-02-02T09:40:33.988Z,2.00
2018-02-02T09:43:01.469Z,2.00
2018-02-02T09:45:28.932Z,2.00
2018-02-02T09:47:56.427Z,1.90
2018-02-02T09:50:23.935Z,1.80
2018-02-02T09:52:51.425Z,1.70
2018-02-02T09:55:20.173Z,1.70
2018-02-02T09:57:47.655Z,1.70
2018-02-02T10:00:15.307Z,1.70
2018-02-02T10:02:43.596Z,1.40
2018-02-02T10:05:11.139Z,1.40
2018-02-02T10:07:38.621Z,1.50
2018-02-02T10:10:06.116Z,1.50
2018-02-02T10:12:33.576Z,1.50
2018-02-02T10:15:01.042Z,1.40
2018-02-02T10:17:28.835Z,1.50
2018-02-02T10:19:56.299Z,1.40
2018-02-02T10:22:23.753Z,1.30
2018-02-02T10:24:51.238Z,1.30
2018-02-02T10:27:20.095Z,1.30
2018-02-02T10:29:48.211Z,1.10
2018-02-02T10:32:15.684Z,1.10
2018-02-02T10:34:43.148Z,1.20
2018-02-02T10:39:50.657Z,1.20
2018-02-02T10:42:20.324Z,1.20
2018-02-02T10:44:48.583Z,1.20
2018-02-02T10:47:16.058Z,1.10
2018-02-02T10:49:44.328Z,1.10
2018-02-02T10:52:12.566Z,0.90
2018-02-02T10:54:40.060Z,1.00
2018-02-02T10:57:08.470Z,1.10
2018-02-02T10:59:36.884Z,1.00
2018-02-02T11:02:09.981Z,1.10
2018-02-02T11:04:37.467Z,1.00
2018-02-02T11:07:04.959Z,1.00
2018-02-02T11:09:32.467Z,1.00
2018-02-02T11:11:59.971Z,1.00
2018-02-02T11:14:28.218Z,0.90
2018-02-02T11:16:56.898Z,1.10
2018-02-02T11:19:25.170Z,0.90
2018-02-02T11:21:52.843Z,0.90
2018-02-02T11:24:21.151Z,0.90
2018-02-02T11:26:48.643Z,0.90
2018-02-02T11:29:16.155Z,0.90
2018-02-02T11:31:43.677Z,0.90
2018-02-02T11:34:11.185Z,0.90
2018-02-02T11:36:39.410Z,1.00
2018-02-02T11:39:07.268Z,1.10
2018-02-02T11:41:34.779Z,1.10
2018-02-02T11:44:02.282Z,1.10
2018-02-02T11:46:29.767Z,1.10
2018-02-02T11:48:57.241Z,1.20
2018-02-02T11:51:24.764Z,1.20
2018-02-02T11:53:52.355Z,1.20
2018-02-02T11:56:20.160Z,1.20
2018-02-02T11:58:47.671Z,1.20
2018-02-02T12:01:15.536Z,1.30
2018-02-02T12:03:43.784Z,1.40
2018-02-02T12:06:11.273Z,1.30
2018-02-02T12:08:39.195Z,1.40
2018-02-02T12:11:06.667Z,1.40
2018-02-02T12:13:34.155Z,1.50
2018-02-02T12:16:02.427Z,1.70
2018-02-02T12:18:29.919Z,1.60
2018-02-02T12:20:57.404Z,1.60
2018-02-02T12:23:24.939Z,1.50
2018-02-02T12:25:58.181Z,1.60
2018-02-02T12:28:32.017Z,1.70
2018-02-02T12:31:03.764Z,1.70
2018-02-02T12:33:47.085Z,1.70
2018-02-02T12:36:15.572Z,1.80
2018-02-02T12:38:43.074Z,1.70
2018-02-02T12:41:10.539Z,1.70
2018-02-02T12:43:38.046Z,1.80
2018-02-02T12:46:05.691Z,1.80
2018-02-02T12:48:40.814Z,1.70
2018-02-02T12:51:16.835Z,1.80
2018-02-02T12:53:44.409Z,1.90
2018-02-02T12:56:11.952Z,1.80
2018-02-02T12:58:39.468Z,1.80
2018-02-02T13:01:06.982Z,1.80
2018-02-02T13:03:34.485Z,2.00
2018-02-02T13:06:02.873Z,2.00
2018-02-02T13:08:30.734Z,2.00
2018-02-02T13:10:58.964Z,2.00
2018-02-02T13:13:26.455Z,2.00
2018-02-02T13:15:55.824Z,2.10
2018-02-02T13:18:23.307Z,2.10
2018-02-02T13:20:51.559Z,2.00
2018-02-02T13:23:19.074Z,2.20
2018-02-02T13:25:46.555Z,2.20
2018-02-02T13:28:14.810Z,2.20
2018-02-02T13:30:42.566Z,2.20
2018-02-02T13:33:10.918Z,2.20
2018-02-02T13:35:39.191Z,2.30
2018-02-02T13:38:07.443Z,2.20
2018-02-02T13:40:34.926Z,2.20
2018-02-02T13:43:02.612Z,2.30
2018-02-02T13:45:30.115Z,2.30
2018-02-02T13:47:58.493Z,2.30
2018-02-02T13:50:25.959Z,2.40
2018-02-02T13:52:54.253Z,2.30
2018-02-02T13:55:21.783Z,2.30
2018-02-02T13:57:49.259Z,2.40
2018-02-02T14:00:16.801Z,2.40
2018-02-02T14:02:45.082Z,2.30
2018-02-02T14:05:12.560Z,2.30
2018-02-02T14:07:40.067Z,2.30
2018-02-02T14:10:07.620Z,2.30
2018-02-02T14:12:35.086Z,2.30
2018-02-02T14:15:02.572Z,2.20
2018-02-02T14:17:30.043Z,2.20
2018-02-02T14:19:57.504Z,2.30
2018-02-02T14:22:24.979Z,2.30
2018-02-02T14:24:53.253Z,2.20
2018-02-02T14:27:21.506Z,2.10
2018-02-02T14:29:48.977Z,2.10
2018-02-02T14:32:17.356Z,2.10
2018-02-02T14:34:45.616Z,2.10
2018-02-02T14:37:13.098Z,2.10
2018-02-02T14:39:40.571Z,2.10
2018-02-02T14:42:08.970Z,2.10
2018-02-02T14:44:36.477Z,2.10
2018-02-02T14:47:03.957Z,2.10
2018-02-02T14:49:32.739Z,2.10
2018-02-02T14:52:01.049Z,2.10
2018-02-02T14:54:28.529Z,2.10
2018-02-02T14:56:56.061Z,2.10
2018-02-02T14:59:23.549Z,2.10
2018-02-02T15:01:51.062Z,2.10
2018-02-02T15:04:18.535Z,2.10
2018-02-02T15:06:46.048Z,2.20
2018-02-02T15:09:13.544Z,2.30
2018-02-02T15:11:41.033Z,2.30
2018-02-02T15:14:08.500Z,2.30
2018-02-02T15:16:35.972Z,2.40
2018-02-02T15:19:03.443Z,2.40
2018-02-02T15:21:31.686Z,2.30
2018-02-02T15:23:59.593Z,2.30
2018-02-02T15:26:27.106Z,2.30
2018-02-02T15:28:55.374Z,2.40
2018-02-02T15:31:22.854Z,2.30
2018-02-02T15:33:50.379Z,2.40
2018-02-02T15:36:17.876Z,2.30
2018-02-02T15:38:45.347Z,2.40
2018-02-02T15:41:13.253Z,2.40
2018-02-02T15:43:41.708Z,2.30
2018-02-02T15:46:09.946Z,2.30
2018-02-02T15:48:38.244Z,2.30
2018-02-02T15:51:06.521Z,2.20
2018-02-02T15:53:34.566Z,2.20
2018-02-02T15:56:02.477Z,2.10
2018-02-02T15:58:29.949Z,2.20
2018-02-02T16:00:57.441Z,2.30
2018-02-02T16:03:24.914Z,2.30
2018-02-02T16:05:52.427Z,2.30
2018-02-02T16:08:19.952Z,2.20
2018-02-02T16:10:48.196Z,2.20
2018-02-02T16:13:15.663Z,2.20
2018-02-02T16:15:43.162Z,2.20
2018-02-02T16:18:11.473Z,2.20
2018-02-02T16:20:38.959Z,2.20
2018-02-02T16:23:06.522Z,2.20
2018-02-02T16:25:34.027Z,2.10
2018-02-02T16:28:01.522Z,2.10
2018-02-02T16:30:28.994Z,2.20
2018-02-02T16:32:56.488Z,2.10
2018-02-02T16:35:23.969Z,2.10
2018-02-02T16:37:51.446Z,2.10
2018-02-02T16:40:18.925Z,2.20
2018-02-02T16:42:47.145Z,2.10
2018-02-02T16:45:14.627Z,2.10
2018-02-02T16:47:42.112Z,2.20
2018-02-02T16:50:09.592Z,2.20
2018-02-02T16:52:37.136Z,2.10
2018-02-02T16:55:04.619Z,2.10
2018-02-02T16:57:32.095Z,2.10
2018-02-02T16:59:59.819Z,2.10
2018-02-02T17:02:27.343Z,2.00
2018-02-02T17:04:54.829Z,2.00
2018-02-02T17:07:22.308Z,2.10
2018-02-02T17:09:49.841Z,2.10
2018-02-02T17:12:18.103Z,2.10
2018-02-02T17:14:45.610Z,2.10
2018-02-02T17:17:13.056Z,2.10
2018-02-02T17:19:40.513Z,2.10
2018-02-02T17:22:08.757Z,2.10
2018-02-02T17:24:36.232Z,2.10
2018-02-02T17:27:04.532Z,2.10
2018-02-02T17:29:32.015Z,2.00
2018-02-02T17:31:59.499Z,2.10
2018-02-02T17:34:26.967Z,2.10
2018-02-02T17:36:55.059Z,2.10
2018-02-02T17:39:22.539Z,2.00
2018-02-02T17:41:50.026Z,2.00
2018-02-02T17:44:18.432Z,2.00
2018-02-02T17:46:46.649Z,2.00
2018-02-02T17:49:14.140Z,2.00
2018-02-02T17:51:41.630Z,2.00
2018-02-02T17:54:09.980Z,2.00
2018-02-02T17:56:37.467Z,2.00
2018-02-02T17:59:04.979Z,2.00
2018-02-02T18:01:35.047Z,2.00
2018-02-02T18:04:02.564Z,2.10
2018-02-02T18:06:30.950Z,2.10
2018-02-02T18:08:58.483Z,2.00
2018-02-02T18:11:25.971Z,2.00
2018-02-02T18:13:53.482Z,2.00
2018-02-02T18:16:20.968Z,2.00
2018-02-02T18:18:48.443Z,2.10
2018-02-02T18:21:15.968Z,2.00
2018-02-02T18:23:43.468Z,2.00
2018-02-02T18:26:10.943Z,2.00
2018-02-02T18:28:39.234Z,1.90
2018-02-02T18:31:06.743Z,1.90
2018-02-02T18:33:34.257Z,2.00
2018-02-02T18:36:01.759Z,2.00
2018-02-02T18:38:29.233Z,2.00
2018-02-02T18:40:56.732Z,2.00
2018-02-02T18:43:24.263Z,2.00
2018-02-02T18:45:52.486Z,2.00
2018-02-02T18:48:19.971Z,1.90
2018-02-02T18:50:47.486Z,2.00
2018-02-02T18:53:14.976Z,1.90
2018-02-02T18:55:42.459Z,1.90
2018-02-02T18:58:09.943Z,1.90
2018-02-02T19:00:37.491Z,1.90
2018-02-02T19:03:05.084Z,1.90
2018-02-02T19:05:32.757Z,1.90
2018-02-02T19:08:00.593Z,1.80
2018-02-02T19:10:29.753Z,1.70
2018-02-02T19:12:59.265Z,1.80
2018-02-02T19:15:27.036Z,1.90
2018-02-02T19:17:54.559Z,1.90
2018-02-02T19:20:22.103Z,1.80
2018-02-02T19:22:49.630Z,1.80
2018-02-02T19:25:17.153Z,1.80
2018-02-02T19:27:44.684Z,1.80
2018-02-02T19:30:12.273Z,1.70
2018-02-02T19:32:39.805Z,1.70
2018-02-02T19:35:07.354Z,1.70
2018-02-02T19:37:34.833Z,1.70
2018-02-02T19:40:04.781Z,1.80
2018-02-02T19:42:32.311Z,1.70
2018-02-02T19:45:01.326Z,1.80
2018-02-02T19:47:28.838Z,1.60
2018-02-02T19:49:56.364Z,1.60
2018-02-02T19:52:23.854Z,1.80
2018-02-02T19:54:51.361Z,1.70
2018-02-02T19:57:21.440Z,1.70
2018-02-02T19:59:48.928Z,1.70
2018-02-02T20:02:16.469Z,1.80
2018-02-02T20:04:43.957Z,1.80
2018-02-02T20:07:12.216Z,1.70
2018-02-02T20:09:39.698Z,1.70
2018-02-02T20:12:07.941Z,1.60
2018-02-02T20:14:35.439Z,1.60
2018-02-02T20:17:02.927Z,1.80
2018-02-02T20:19:30.454Z,1.60
2018-02-02T20:21:57.954Z,1.60
2018-02-02T20:24:25.444Z,1.60
2018-02-02T20:26:52.899Z,1.70
2018-02-02T20:31:52.183Z,1.70
2018-02-02T20:34:19.650Z,1.60
2018-02-02T20:36:47.124Z,1.70
2018-02-02T20:39:14.606Z,1.80
2018-02-02T20:41:42.883Z,1.60
2018-02-02T20:44:11.192Z,1.50
2018-02-02T20:46:38.697Z,1.50
2018-02-02T20:49:06.167Z,1.50
2018-02-02T20:51:34.442Z,1.50
2018-02-02T20:54:01.940Z,1.40
2018-02-02T20:56:29.404Z,1.50
2018-02-02T20:58:56.910Z,1.40
2018-02-02T21:01:24.430Z,1.50
2018-02-02T21:03:51.933Z,1.50
2018-02-02T21:06:20.194Z,1.50
2018-02-02T21:08:47.684Z,1.50
2018-02-02T21:11:15.176Z,1.50
2018-02-02T21:13:42.638Z,1.60
2018-02-02T21:16:10.149Z,1.50
2018-02-02T21:18:37.636Z,1.50
2018-02-02T21:21:05.145Z,1.50
2018-02-02T21:23:33.512Z,1.40
2018-02-02T21:26:00.983Z,1.40
2018-02-02T21:28:29.254Z,1.40
2018-02-02T21:30:56.749Z,1.40
2018-02-02T21:33:24.291Z,1.50
2018-02-02T21:35:51.773Z,1.40
2018-02-02T21:38:19.249Z,1.40
2018-02-02T21:40:46.713Z,1.40
2018-02-02T21:43:14.201Z,1.40
2018-02-02T21:45:42.449Z,1.40
2018-02-02T21:48:10.714Z,1.50
2018-02-02T21:50:39.041Z,1.40
2018-02-02T21:53:07.313Z,1.60
2018-02-02T21:55:35.551Z,1.50
2018-02-02T21:58:03.037Z,1.50
2018-02-02T22:00:30.565Z,1.50
2018-02-02T22:02:58.053Z,1.60
2018-02-02T22:05:26.304Z,1.60
2018-02-02T22:07:54.591Z,1.60
2018-02-02T22:10:22.057Z,1.60
2018-02-02T22:12:49.522Z,1.50
2018-02-02T22:15:17.079Z,1.40
2018-02-02T22:17:44.724Z,1.40
2018-02-02T22:20:13.072Z,1.50
2018-02-02T22:22:40.583Z,1.50
2018-02-02T22:25:08.195Z,1.50
2018-02-02T22:27:35.851Z,1.50
2018-02-02T22:30:03.386Z,1.50
2018-02-02T22:32:30.922Z,1.50
2018-02-02T22:34:58.381Z,1.60
2018-02-02T22:37:25.904Z,1.60
2018-02-02T22:39:53.387Z,1.60
2018-02-02T22:42:22.649Z,1.80
2018-02-02T22:44:50.121Z,1.60
2018-02-02T22:47:17.851Z,1.60
2018-02-02T22:49:45.340Z,1.60
2018-02-02T22:52:12.830Z,1.60
2018-02-02T22:54:40.351Z,1.70
2018-02-02T22:57:07.833Z,1.60
2018-02-02T22:59:35.349Z,1.60
2018-02-02T23:02:02.880Z,1.60
2018-02-02T23:04:30.440Z,1.50
2018-02-02T23:06:57.957Z,1.50
2018-02-02T23:09:25.461Z,1.60
2018-02-02T23:11:52.941Z,1.40
2018-02-02T23:14:20.429Z,1.50
2018-02-02T23:16:47.899Z,1.50
2018-02-02T23:19:15.374Z,1.50
2018-02-02T23:21:43.633Z,1.50
2018-02-02T23:24:11.109Z,1.40
2018-02-02T23:26:38.590Z,1.50
2018-02-02T23:29:06.095Z,1.60
2018-02-02T23:31:33.565Z,1.50
2018-02-02T23:34:01.343Z,1.50
2018-02-02T23:36:28.932Z,1.40
2018-02-02T23:38:56.469Z,1.40
2018-02-02T23:41:23.991Z,1.40
2018-02-02T23:43:51.564Z,1.50
2018-02-02T23:46:19.137Z,1.50
2018-02-02T23:48:46.806Z,1.50
2018-02-02T23:51:14.842Z,1.50
2018-02-02T23:53:42.466Z,1.50
2018-02-02T23:56:10.068Z,1.70
2018-02-02T23:58:37.658Z,1.70
